SLCO/CIJ METAR and TAF weather

Enter ICAO airport designator
Station Type Date Time Source
SLCO METAR 2021/04/16 21:00 UTC NOAA

SLCO 162100Z 36005KT 9999 SCT030 33/25 Q1006


Station Type Date Time Source
SLCO Decoded METAR 2021/04/16 21:00 UTC NOAA

Cobija, Bolivia (SLCO) 11-02S 068-47W 260M
Apr 16, 2021 - 05:00 PM EDT / 2021.04.16 2100 UTC
Wind: from the N (360 degrees) at 6 MPH (5 KT):0
Visibility: greater than 7 mile(s):0
Sky conditions: partly cloudy
Temperature: 91 F (33 C)
Heat index: 103.5 F (39.7 C):1
Dew Point: 77 F (25 C)
Relative Humidity: 62%
Pressure (altimeter): 29.71 in. Hg (1006 hPa)
ob: SLCO 162100Z 36005KT 9999 SCT030 33/25 Q1006
cycle: 21

Station Type Date Time Source
SLCO TAF 2021/04/16 18:23 UTC NOAA

TAF SLCO 161600Z 1618/1718 35011KT 9999 SCT020 BKN080 TX34/1620Z TN23/1710Z PROB40
TEMPO 1620/1623 8000 TSRA FEW023CB
BECMG 1700/1703 00000KT BKN011 BKN070

Example: see airport list